createdAt,value
2018-01-24T00:00:49.941Z,4.20
2018-01-24T00:03:17.478Z,4.20
2018-01-24T00:05:45.035Z,4.20
2018-01-24T00:08:12.573Z,4.20
2018-01-24T00:10:40.895Z,4.30
2018-01-24T00:13:08.432Z,4.20
2018-01-24T00:15:35.975Z,4.30
2018-01-24T00:18:03.562Z,4.30
2018-01-24T00:20:31.095Z,4.30
2018-01-24T00:22:58.654Z,4.30
2018-01-24T00:25:26.204Z,4.40
2018-01-24T00:27:53.759Z,4.40
2018-01-24T00:30:22.068Z,4.40
2018-01-24T00:32:50.407Z,4.30
2018-01-24T00:35:17.947Z,4.30
2018-01-24T00:37:46.270Z,4.30
2018-01-24T00:40:13.807Z,4.30
2018-01-24T00:42:41.364Z,4.30
2018-01-24T00:45:08.906Z,4.30
2018-01-24T00:47:36.467Z,4.30
2018-01-24T00:50:04.004Z,4.30
2018-01-24T00:52:31.540Z,4.40
2018-01-24T00:54:59.090Z,4.40
2018-01-24T00:57:26.632Z,4.30
2018-01-24T00:59:54.191Z,4.30
2018-01-24T01:02:21.736Z,4.30
2018-01-24T01:04:49.300Z,4.40
2018-01-24T01:07:16.840Z,4.40
2018-01-24T01:09:44.422Z,4.40
2018-01-24T01:12:11.960Z,4.40
2018-01-24T01:14:39.527Z,4.40
2018-01-24T01:17:07.064Z,4.40
2018-01-24T01:19:34.642Z,4.40
2018-01-24T01:22:02.179Z,4.40
2018-01-24T01:24:29.748Z,4.50
2018-01-24T01:26:58.075Z,4.50
2018-01-24T01:29:25.612Z,4.50
2018-01-24T01:31:53.959Z,4.50
2018-01-24T01:34:21.496Z,4.50
2018-01-24T01:36:49.051Z,4.50
2018-01-24T01:39:16.586Z,4.60
2018-01-24T01:41:44.923Z,4.60
2018-01-24T01:44:12.478Z,4.60
2018-01-24T01:46:40.811Z,4.70
2018-01-24T01:49:08.352Z,4.60
2018-01-24T01:51:36.680Z,4.70
2018-01-24T01:54:04.220Z,4.70
2018-01-24T01:56:31.779Z,4.80
2018-01-24T01:58:59.321Z,4.80
2018-01-24T02:01:26.875Z,4.80
2018-01-24T02:03:54.430Z,4.80
2018-01-24T02:06:21.984Z,4.90
2018-01-24T02:08:49.532Z,4.90
2018-01-24T02:11:17.078Z,4.90
2018-01-24T02:13:44.643Z,4.90
2018-01-24T02:16:12.179Z,4.90
2018-01-24T02:18:39.756Z,5.00
2018-01-24T02:21:07.295Z,5.00
2018-01-24T02:23:34.871Z,5.00
2018-01-24T02:26:02.416Z,5.00
2018-01-24T02:28:30.740Z,5.10
2018-01-24T02:30:58.279Z,5.00
2018-01-24T02:33:25.844Z,5.10
2018-01-24T02:35:54.148Z,5.10
2018-01-24T02:38:29.511Z,5.10
2018-01-24T02:40:57.053Z,5.10
2018-01-24T02:43:25.412Z,5.20
2018-01-24T02:45:52.952Z,5.20
2018-01-24T02:48:20.492Z,5.20
2018-01-24T02:50:48.073Z,5.20
2018-01-24T02:53:15.618Z,5.20
2018-01-24T02:55:43.180Z,5.20
2018-01-24T02:58:11.488Z,5.30
2018-01-24T03:00:39.056Z,5.30
2018-01-24T03:03:07.384Z,5.30
2018-01-24T03:05:34.952Z,5.30
2018-01-24T03:08:03.263Z,5.30
2018-01-24T03:10:30.832Z,5.30
2018-01-24T03:12:59.138Z,5.40
2018-01-24T03:15:26.708Z,5.30
2018-01-24T03:17:55.020Z,5.40
2018-01-24T03:20:23.334Z,5.40
2018-01-24T03:22:50.900Z,5.40
2018-01-24T03:25:19.213Z,5.40
2018-01-24T03:27:47.544Z,5.50
2018-01-24T03:30:15.092Z,5.50
2018-01-24T03:32:43.417Z,5.50
2018-01-24T03:35:10.959Z,5.50
2018-01-24T03:37:38.544Z,5.50
2018-01-24T03:40:06.085Z,5.50
2018-01-24T03:42:33.648Z,5.60
2018-01-24T03:45:01.237Z,5.60
2018-01-24T03:47:28.804Z,5.60
2018-01-24T03:49:57.128Z,5.60
2018-01-24T03:52:24.692Z,5.60
2018-01-24T03:54:52.257Z,5.60
2018-01-24T03:57:20.598Z,5.70
2018-01-24T03:59:48.145Z,5.70
2018-01-24T04:02:16.478Z,5.80
2018-01-24T04:04:44.029Z,5.80
2018-01-24T04:07:11.584Z,5.80
2018-01-24T04:09:39.144Z,5.80
2018-01-24T04:12:06.695Z,5.80
2018-01-24T04:14:35.027Z,5.90
2018-01-24T04:17:02.581Z,5.80
2018-01-24T04:19:30.929Z,5.90
2018-01-24T04:21:59.253Z,5.90
2018-01-24T04:24:26.852Z,5.90
2018-01-24T04:26:54.401Z,6.00
2018-01-24T04:29:21.970Z,5.90
2018-01-24T04:31:49.512Z,6.00
2018-01-24T04:34:17.840Z,6.10
2018-01-24T04:36:45.384Z,6.10
2018-01-24T04:39:12.957Z,6.10
2018-01-24T04:41:40.505Z,6.10
2018-01-24T04:44:08.050Z,6.10
2018-01-24T04:46:36.388Z,6.10
2018-01-24T04:49:03.928Z,6.10
2018-01-24T04:51:32.296Z,6.20
2018-01-24T04:53:59.842Z,6.20
2018-01-24T04:56:27.414Z,6.20
2018-01-24T04:58:55.729Z,6.20
2018-01-24T05:01:23.291Z,6.20
2018-01-24T05:03:51.623Z,6.30
2018-01-24T05:06:19.185Z,6.30
2018-01-24T05:08:47.505Z,6.20
2018-01-24T05:11:15.068Z,6.20
2018-01-24T05:13:45.075Z,6.30
2018-01-24T05:16:12.644Z,6.30
2018-01-24T05:18:40.187Z,6.30
2018-01-24T05:21:07.770Z,6.30
2018-01-24T05:23:35.328Z,6.30
2018-01-24T05:26:02.912Z,6.30
2018-01-24T05:28:30.461Z,6.30
2018-01-24T05:30:58.025Z,6.40
2018-01-24T05:33:25.572Z,6.40
2018-01-24T05:35:53.902Z,6.40
2018-01-24T05:38:21.479Z,6.40
2018-01-24T05:40:49.040Z,6.40
2018-01-24T05:43:16.609Z,6.40
2018-01-24T05:45:44.157Z,6.40
2018-01-24T05:48:11.724Z,6.40
2018-01-24T05:50:39.268Z,6.40
2018-01-24T05:53:06.844Z,6.40
2018-01-24T05:55:34.396Z,6.40
2018-01-24T05:58:01.960Z,6.30
2018-01-24T06:00:29.499Z,6.40
2018-01-24T06:02:57.084Z,6.40
2018-01-24T06:05:24.628Z,6.40
2018-01-24T06:07:52.192Z,6.40
2018-01-24T06:10:19.740Z,6.40
2018-01-24T06:12:47.326Z,6.50
2018-01-24T06:15:14.882Z,6.50
2018-01-24T06:17:42.457Z,6.50
2018-01-24T06:20:10.010Z,6.50
2018-01-24T06:22:37.556Z,6.50
2018-01-24T06:25:05.125Z,6.50
2018-01-24T06:27:32.678Z,6.50
2018-01-24T06:30:00.248Z,6.60
2018-01-24T06:32:27.789Z,6.60
2018-01-24T06:34:55.362Z,6.60
2018-01-24T06:37:22.914Z,6.60
2018-01-24T06:39:50.476Z,6.60
2018-01-24T06:42:18.020Z,6.60
2018-01-24T06:44:45.585Z,6.70
2018-01-24T06:47:13.123Z,6.70
2018-01-24T06:49:41.452Z,6.80
2018-01-24T06:52:09.002Z,6.70
2018-01-24T06:54:37.404Z,6.80
2018-01-24T06:57:05.708Z,6.80
2018-01-24T06:59:34.020Z,6.80
2018-01-24T07:02:01.592Z,6.80
2018-01-24T07:04:29.145Z,6.90
2018-01-24T07:06:56.734Z,6.90
2018-01-24T07:09:24.277Z,6.90
2018-01-24T07:11:51.844Z,6.90
2018-01-24T07:14:31.391Z,6.90
2018-01-24T07:16:59.724Z,6.90
2018-01-24T07:19:27.300Z,6.90
2018-01-24T07:21:54.866Z,6.90
2018-01-24T07:24:23.177Z,6.90
2018-01-24T07:26:50.737Z,6.90
2018-01-24T07:29:18.328Z,7.00
2018-01-24T07:31:46.666Z,7.00
2018-01-24T07:34:14.238Z,7.00
2018-01-24T07:36:41.812Z,7.00
2018-01-24T07:39:09.377Z,7.00
2018-01-24T07:41:36.945Z,7.10
2018-01-24T07:44:04.492Z,7.00
2018-01-24T07:46:32.032Z,7.10
2018-01-24T07:49:00.372Z,7.10
2018-01-24T07:51:27.917Z,7.10
2018-01-24T07:53:56.244Z,7.20
2018-01-24T07:56:23.783Z,7.10
2018-01-24T07:58:51.353Z,7.20
2018-01-24T08:01:18.918Z,7.10
2018-01-24T08:03:46.484Z,7.20
2018-01-24T08:06:14.028Z,7.10
2018-01-24T08:08:41.597Z,7.20
2018-01-24T08:11:09.145Z,7.20
2018-01-24T08:13:36.714Z,7.20
2018-01-24T08:16:04.261Z,7.20
2018-01-24T08:18:31.831Z,7.20
2018-01-24T08:20:59.384Z,7.20
2018-01-24T08:23:26.924Z,7.30
2018-01-24T08:25:55.262Z,7.30
2018-01-24T08:28:22.808Z,7.30
2018-01-24T08:30:51.152Z,7.40
2018-01-24T08:33:18.700Z,7.40
2018-01-24T08:35:47.033Z,7.50
2018-01-24T08:38:14.572Z,7.40
2018-01-24T08:40:42.140Z,7.50
2018-01-24T08:43:09.688Z,7.50
2018-01-24T08:45:37.260Z,7.50
2018-01-24T08:48:04.804Z,7.50
2018-01-24T08:50:32.392Z,7.50
2018-01-24T08:52:59.943Z,7.60
2018-01-24T08:55:27.512Z,7.60
2018-01-24T08:57:55.058Z,7.60
2018-01-24T09:00:40.956Z,7.70
2018-01-24T09:03:26.169Z,7.70
2018-01-24T09:06:12.116Z,7.80
2018-01-24T09:08:57.309Z,7.80
2018-01-24T09:11:42.599Z,7.90
2018-01-24T09:14:28.468Z,8.10
2018-01-24T09:17:14.301Z,8.10
2018-01-24T09:19:59.492Z,8.00
2018-01-24T09:22:40.928Z,8.10
2018-01-24T09:25:08.466Z,8.10
2018-01-24T09:27:36.023Z,8.10
2018-01-24T09:30:03.557Z,8.10
2018-01-24T09:32:31.122Z,8.10
2018-01-24T09:34:58.665Z,8.10
2018-01-24T09:37:26.236Z,8.20
2018-01-24T09:39:53.776Z,8.30
2018-01-24T09:42:21.337Z,8.40
2018-01-24T09:44:48.872Z,8.60
2018-01-24T09:47:17.028Z,8.70
2018-01-24T09:49:44.588Z,8.80
2018-01-24T09:52:12.172Z,8.80
2018-01-24T09:54:41.188Z,8.80
2018-01-24T09:57:09.514Z,8.80
2018-01-24T09:59:37.056Z,8.80
2018-01-24T10:02:04.613Z,8.70
2018-01-24T10:04:32.161Z,8.80
2018-01-24T10:06:59.708Z,8.80
2018-01-24T10:09:27.284Z,8.80
2018-01-24T10:11:54.835Z,8.80
2018-01-24T10:14:22.403Z,8.80
2018-01-24T10:16:49.945Z,8.80
2018-01-24T10:19:17.513Z,8.90
2018-01-24T10:21:45.061Z,8.90
2018-01-24T10:24:12.637Z,9.00
2018-01-24T10:26:40.177Z,9.10
2018-01-24T10:29:07.752Z,9.00
2018-01-24T10:31:35.294Z,9.00
2018-01-24T10:34:02.870Z,9.00
2018-01-24T10:36:30.431Z,9.00
2018-01-24T10:38:58.768Z,8.90
2018-01-24T10:41:26.314Z,8.90
2018-01-24T10:43:53.877Z,8.90
2018-01-24T10:46:21.407Z,8.90
2018-01-24T10:48:48.941Z,8.90
2018-01-24T10:51:16.525Z,9.00
2018-01-24T10:53:44.060Z,9.00
2018-01-24T10:56:11.619Z,9.10
2018-01-24T10:58:39.928Z,9.20
2018-01-24T11:01:08.248Z,9.30
2018-01-24T11:03:35.780Z,9.30
2018-01-24T11:06:03.332Z,9.40
2018-01-24T11:08:30.876Z,9.50
2018-01-24T11:10:59.204Z,9.60
2018-01-24T11:13:26.744Z,9.60
2018-01-24T11:15:54.309Z,9.70
2018-01-24T11:18:21.843Z,9.80
2018-01-24T11:20:49.409Z,9.80
2018-01-24T11:23:17.717Z,9.90
2018-01-24T11:25:46.032Z,9.90
2018-01-24T11:28:13.572Z,9.90
2018-01-24T11:30:41.134Z,9.90
2018-01-24T11:33:08.665Z,9.90
2018-01-24T11:35:37.002Z,9.80
2018-01-24T11:38:04.551Z,9.80
2018-01-24T11:40:32.856Z,9.80
2018-01-24T11:43:01.181Z,9.80
2018-01-24T11:45:28.722Z,9.80
2018-01-24T11:47:57.049Z,9.80
2018-01-24T11:50:25.350Z,9.80
2018-01-24T11:52:52.912Z,9.80
2018-01-24T11:55:20.443Z,9.80
2018-01-24T11:57:48.005Z,9.80
2018-01-24T12:00:15.542Z,9.90
2018-01-24T12:02:43.106Z,9.90
2018-01-24T12:05:10.645Z,9.90
2018-01-24T12:07:38.972Z,10.00
2018-01-24T12:10:06.509Z,9.90
2018-01-24T12:12:34.073Z,10.00
2018-01-24T12:15:02.564Z,10.00
2018-01-24T12:17:30.120Z,10.00
2018-01-24T12:19:57.688Z,10.10
2018-01-24T12:22:26.016Z,10.20
2018-01-24T12:24:53.554Z,10.10
2018-01-24T12:27:21.095Z,10.20
2018-01-24T12:29:48.660Z,10.20
2018-01-24T12:32:16.210Z,10.20
2018-01-24T12:34:43.773Z,10.20
2018-01-24T12:37:11.313Z,10.20
2018-01-24T12:39:38.876Z,10.20
2018-01-24T12:42:07.197Z,10.10
2018-01-24T12:44:34.760Z,10.10
2018-01-24T12:47:03.072Z,10.10
2018-01-24T12:49:30.641Z,10.10
2018-01-24T12:51:58.953Z,10.10
2018-01-24T12:54:27.301Z,10.10
2018-01-24T12:56:54.846Z,10.00
2018-01-24T12:59:22.413Z,10.10
2018-01-24T13:01:50.727Z,10.10
2018-01-24T13:04:19.053Z,10.10
2018-01-24T13:06:46.596Z,10.10
2018-01-24T13:09:14.937Z,10.20
2018-01-24T13:11:42.508Z,10.20
2018-01-24T13:14:10.077Z,10.20
2018-01-24T13:16:38.388Z,10.20
2018-01-24T13:19:05.959Z,10.20
2018-01-24T13:21:34.289Z,10.20
2018-01-24T13:24:01.832Z,10.20
2018-01-24T13:26:29.400Z,10.20
2018-01-24T13:28:56.949Z,10.20
2018-01-24T13:31:24.517Z,10.20
2018-01-24T13:33:52.060Z,10.20
2018-01-24T13:36:19.633Z,10.20
2018-01-24T13:38:47.269Z,10.20
2018-01-24T13:41:14.841Z,10.30
2018-01-24T13:43:43.150Z,10.30
2018-01-24T13:46:10.716Z,10.20
2018-01-24T13:48:39.021Z,10.20
2018-01-24T13:51:07.357Z,10.20
2018-01-24T13:53:34.896Z,10.20
2018-01-24T13:56:02.506Z,10.20
2018-01-24T13:58:30.827Z,10.20
2018-01-24T14:00:58.413Z,10.10
2018-01-24T14:03:25.980Z,10.10
2018-01-24T14:05:53.540Z,10.10
2018-01-24T14:08:21.871Z,10.10
2018-01-24T14:10:49.408Z,10.10
2018-01-24T14:13:16.975Z,10.10
2018-01-24T14:15:44.517Z,10.00
2018-01-24T14:18:12.103Z,10.00
2018-01-24T14:20:39.644Z,9.90
2018-01-24T14:23:07.204Z,9.90
2018-01-24T14:25:34.744Z,9.90
2018-01-24T14:28:03.083Z,9.90
2018-01-24T14:30:30.630Z,9.90
2018-01-24T14:32:58.188Z,9.90
2018-01-24T14:35:25.729Z,9.80
2018-01-24T14:37:53.296Z,9.90
2018-01-24T14:40:20.853Z,9.80
2018-01-24T14:42:49.169Z,9.80
2018-01-24T14:45:16.728Z,9.80
2018-01-24T14:47:44.277Z,9.80
2018-01-24T14:50:11.836Z,9.80
2018-01-24T14:52:39.374Z,9.80
2018-01-24T14:55:06.938Z,9.80
2018-01-24T14:57:34.487Z,9.80
2018-01-24T15:00:02.051Z,9.80
2018-01-24T15:02:30.372Z,9.80
2018-01-24T15:04:57.940Z,9.70
2018-01-24T15:07:25.487Z,9.80
2018-01-24T15:09:53.066Z,9.80
2018-01-24T15:12:20.609Z,9.80
2018-01-24T15:14:48.155Z,9.80
2018-01-24T15:17:15.717Z,9.80
2018-01-24T15:19:43.260Z,9.80
2018-01-24T15:22:10.827Z,9.80
2018-01-24T15:24:39.825Z,9.80
2018-01-24T15:27:07.385Z,9.80
2018-01-24T15:29:34.931Z,9.80
2018-01-24T15:32:02.494Z,9.80
2018-01-24T15:34:30.053Z,9.80
2018-01-24T15:36:58.391Z,9.80
2018-01-24T15:39:25.952Z,9.80
2018-01-24T15:41:54.292Z,9.80
2018-01-24T15:44:21.836Z,9.80
2018-01-24T15:46:50.168Z,9.80
2018-01-24T15:49:17.716Z,9.80
2018-01-24T15:51:46.091Z,9.80
2018-01-24T15:54:13.634Z,9.80
2018-01-24T15:56:41.183Z,9.80
2018-01-24T15:59:10.332Z,9.90
2018-01-24T16:01:39.060Z,9.80
2018-01-24T16:04:06.668Z,9.80
2018-01-24T16:06:34.235Z,9.80
2018-01-24T16:09:01.800Z,9.80
2018-01-24T16:11:29.648Z,9.80
2018-01-24T16:13:57.224Z,9.80
2018-01-24T16:16:24.764Z,9.80
2018-01-24T16:18:52.325Z,9.80
2018-01-24T16:21:20.641Z,9.70
2018-01-24T16:23:48.213Z,9.70
2018-01-24T16:26:20.711Z,9.70
2018-01-24T16:28:48.557Z,9.60
2018-01-24T16:31:16.238Z,9.60
2018-01-24T16:33:43.813Z,9.60
2018-01-24T16:36:11.366Z,9.60
2018-01-24T16:38:38.925Z,9.60
2018-01-24T16:41:06.499Z,9.60
2018-01-24T16:43:34.043Z,9.50
2018-01-24T16:46:01.617Z,9.50
2018-01-24T16:48:29.164Z,9.40
2018-01-24T16:50:56.750Z,9.40
2018-01-24T16:53:25.116Z,9.40
2018-01-24T16:55:52.685Z,9.40
2018-01-24T16:58:20.236Z,9.30
2018-01-24T17:00:48.578Z,9.30
2018-01-24T17:03:16.139Z,9.30
2018-01-24T17:05:44.473Z,9.30
2018-01-24T17:08:12.019Z,9.30
2018-01-24T17:10:40.105Z,9.30
2018-01-24T17:13:07.677Z,9.30
2018-01-24T17:15:35.216Z,9.30
2018-01-24T17:18:02.793Z,9.30
2018-01-24T17:20:30.333Z,9.40
2018-01-24T17:22:57.904Z,9.30
2018-01-24T17:25:25.445Z,9.30
2018-01-24T17:27:54.344Z,9.30
2018-01-24T17:30:21.884Z,9.30
2018-01-24T17:32:49.448Z,9.30
2018-01-24T17:35:16.993Z,9.20
2018-01-24T17:37:44.589Z,9.20
2018-01-24T17:40:12.906Z,9.20
2018-01-24T17:42:42.216Z,9.20
2018-01-24T17:45:10.462Z,9.20
2018-01-24T17:47:38.003Z,9.10
2018-01-24T17:50:06.334Z,9.10
2018-01-24T17:52:33.872Z,9.10
2018-01-24T17:55:01.432Z,9.00
2018-01-24T17:57:28.984Z,9.00
2018-01-24T17:59:56.549Z,9.00
2018-01-24T18:02:24.854Z,9.00
2018-01-24T18:04:52.416Z,9.00
2018-01-24T18:07:20.720Z,9.10
2018-01-24T18:09:49.056Z,9.10
2018-01-24T18:12:16.596Z,9.10
2018-01-24T18:14:44.150Z,9.10
2018-01-24T18:17:11.684Z,9.00
2018-01-24T18:19:39.231Z,9.00
2018-01-24T18:22:06.777Z,9.00
2018-01-24T18:24:34.311Z,9.00
2018-01-24T18:27:01.869Z,9.10
2018-01-24T18:29:29.436Z,9.10
2018-01-24T18:31:56.983Z,9.20
2018-01-24T18:34:25.283Z,9.20
2018-01-24T18:36:53.601Z,9.20
2018-01-24T18:39:21.143Z,9.20
2018-01-24T18:41:48.734Z,9.20
2018-01-24T18:44:22.905Z,9.30
2018-01-24T18:46:51.224Z,9.30
2018-01-24T18:49:18.760Z,9.30
2018-01-24T18:51:46.317Z,9.40
2018-01-24T18:54:13.889Z,9.40
2018-01-24T18:56:41.484Z,9.40
2018-01-24T18:59:09.018Z,9.40
2018-01-24T19:01:37.351Z,9.40
2018-01-24T19:04:05.071Z,9.40
2018-01-24T19:06:32.607Z,9.40
2018-01-24T19:09:00.159Z,9.50
2018-01-24T19:11:27.695Z,9.50
2018-01-24T19:13:56.035Z,9.50
2018-01-24T19:16:23.576Z,9.50
2018-01-24T19:18:51.149Z,9.50
2018-01-24T19:21:19.449Z,9.60
2018-01-24T19:23:47.759Z,9.60
2018-01-24T19:26:16.064Z,9.60
2018-01-24T19:28:43.615Z,9.60
2018-01-24T19:31:11.385Z,9.70
2018-01-24T19:33:43.990Z,9.70
2018-01-24T19:36:11.533Z,9.70
2018-01-24T19:38:39.084Z,9.70
2018-01-24T19:41:06.613Z,9.70
2018-01-24T19:43:34.168Z,9.80
2018-01-24T19:46:02.476Z,9.80
2018-01-24T19:48:30.784Z,9.80
2018-01-24T19:50:59.096Z,9.80
2018-01-24T19:53:26.635Z,9.80
2018-01-24T19:55:54.190Z,9.80
2018-01-24T20:00:55.695Z,9.90
2018-01-24T20:03:23.251Z,9.90
2018-01-24T20:05:51.574Z,9.90
2018-01-24T20:08:19.111Z,9.80
2018-01-24T20:10:46.663Z,9.90
2018-01-24T20:13:14.191Z,9.90
2018-01-24T20:15:41.812Z,9.80
2018-01-24T20:18:09.357Z,9.90
2018-01-24T20:20:36.943Z,9.90
2018-01-24T20:23:04.478Z,9.90
2018-01-24T20:25:32.064Z,9.90
2018-01-24T20:27:59.596Z,10.00
2018-01-24T20:30:27.152Z,10.00
2018-01-24T20:32:54.687Z,9.90
2018-01-24T20:35:23.023Z,9.90
2018-01-24T20:37:50.640Z,9.90
2018-01-24T20:40:18.183Z,9.90
2018-01-24T20:42:45.745Z,10.00
2018-01-24T20:45:14.045Z,10.00
2018-01-24T20:47:42.427Z,10.00
2018-01-24T20:50:09.987Z,10.00
2018-01-24T20:52:37.543Z,10.00
2018-01-24T20:55:05.085Z,10.00
2018-01-24T20:57:32.647Z,10.00
2018-01-24T21:00:00.187Z,10.00
2018-01-24T21:02:27.734Z,10.00
2018-01-24T21:04:55.266Z,10.00
2018-01-24T21:07:22.829Z,10.00
2018-01-24T21:09:50.715Z,10.10
2018-01-24T21:12:19.043Z,10.00
2018-01-24T21:14:46.579Z,10.00
2018-01-24T21:17:14.135Z,10.00
2018-01-24T21:19:41.672Z,10.00
2018-01-24T21:22:09.989Z,10.00
2018-01-24T21:24:37.528Z,9.90
2018-01-24T21:27:05.092Z,10.00
2018-01-24T21:29:52.346Z,10.00
2018-01-24T21:32:31.947Z,10.00
2018-01-24T21:35:11.960Z,9.90
2018-01-24T21:37:39.542Z,9.90
2018-01-24T21:40:07.076Z,10.00
2018-01-24T21:42:34.623Z,9.90
2018-01-24T21:45:03.401Z,9.90
2018-01-24T21:47:30.987Z,9.90
2018-01-24T21:49:59.299Z,9.90
2018-01-24T21:52:26.832Z,9.90
2018-01-24T21:54:54.398Z,9.90
2018-01-24T21:57:21.931Z,9.90
2018-01-24T21:59:50.248Z,9.90
2018-01-24T22:02:17.788Z,9.80
2018-01-24T22:04:45.338Z,9.80
2018-01-24T22:07:12.869Z,9.80
2018-01-24T22:09:40.413Z,9.80
2018-01-24T22:12:07.951Z,9.80
2018-01-24T22:14:36.318Z,9.70
2018-01-24T22:17:03.824Z,9.70
2018-01-24T22:19:31.354Z,9.70
2018-01-24T22:21:58.973Z,9.70
2018-01-24T22:24:26.527Z,9.70
2018-01-24T22:26:54.218Z,9.70
2018-01-24T22:29:21.891Z,9.70
2018-01-24T22:31:49.470Z,9.70
2018-01-24T22:34:17.134Z,9.60
2018-01-24T22:36:45.483Z,9.70
2018-01-24T22:39:13.044Z,9.70
2018-01-24T22:41:40.632Z,9.70
2018-01-24T22:44:08.196Z,9.70
2018-01-24T22:46:36.556Z,9.60
2018-01-24T22:49:04.140Z,9.60
2018-01-24T22:51:31.722Z,9.60
2018-01-24T22:53:59.251Z,9.50
2018-01-24T22:56:27.567Z,9.40
2018-01-24T22:58:55.104Z,9.40
2018-01-24T23:01:22.667Z,9.40
2018-01-24T23:03:50.193Z,9.50
2018-01-24T23:06:18.520Z,9.50
2018-01-24T23:08:46.060Z,9.50
2018-01-24T23:11:13.634Z,9.40
2018-01-24T23:13:41.158Z,9.40
2018-01-24T23:16:09.597Z,9.40
2018-01-24T23:18:37.178Z,9.40
2018-01-24T23:21:04.735Z,9.40
2018-01-24T23:23:32.318Z,9.40
2018-01-24T23:25:59.884Z,9.40
2018-01-24T23:28:28.275Z,9.40
2018-01-24T23:30:55.835Z,9.30
2018-01-24T23:33:23.428Z,9.30
2018-01-24T23:35:50.991Z,9.40
2018-01-24T23:38:18.585Z,9.40
2018-01-24T23:40:46.148Z,9.30
2018-01-24T23:43:13.726Z,9.30
2018-01-24T23:45:41.296Z,9.30
2018-01-24T23:48:08.878Z,9.30
2018-01-24T23:50:36.435Z,9.30
2018-01-24T23:53:04.019Z,9.40
2018-01-24T23:55:31.578Z,9.40
2018-01-24T23:57:59.158Z,9.40
